Time;durP1;ratioP1;P1;durP2;ratioP2;P2;SDS_P1;SDS_P2;PMS_P1;PMS_P2;Temp;Humidity;BMP_temperature;BMP_pressure;BME280_temperature;BME280_humidity;BME280_pressure;Samples;Min_cycle;Max_cycle;Signal;HPM_P1;HPM_P2
2023/06/03 00:02:03;;;;;;;2.55;1.25;;;14.00;79.60;;;;;;4980123;28;20082;-41
2023/06/03 00:04:30;;;;;;;1.70;1.20;;;14.00;79.30;;;;;;4992074;28;20054;-41
2023/06/03 00:06:57;;;;;;;3.83;1.35;;;13.90;79.40;;;;;;4978142;28;20505;-39
2023/06/03 00:09:24;;;;;;;7.35;1.45;;;13.90;79.30;;;;;;4975162;28;20072;-44
2023/06/03 00:11:50;;;;;;;3.30;1.40;;;13.90;79.30;;;;;;4992053;28;20109;-41
2023/06/03 00:14:17;;;;;;;2.78;1.35;;;13.80;78.50;;;;;;4991503;28;20483;-39
2023/06/03 00:16:46;;;;;;;3.72;1.30;;;13.70;78.70;;;;;;4992793;28;20101;-43
2023/06/03 00:19:15;;;;;;;4.82;1.23;;;13.80;78.90;;;;;;4983015;28;20069;-41
2023/06/03 00:21:45;;;;;;;5.38;1.15;;;13.60;78.90;;;;;;4989983;28;20471;-42
2023/06/03 00:24:12;;;;;;;2.50;1.38;;;13.60;79.70;;;;;;4972903;28;20499;-43
2023/06/03 00:26:39;;;;;;;4.25;1.10;;;13.60;79.00;;;;;;4991632;28;20498;-41
2023/06/03 00:29:05;;;;;;;3.72;1.40;;;13.60;78.90;;;;;;4991310;28;20116;-42
2023/06/03 00:31:32;;;;;;;3.00;1.17;;;13.50;78.70;;;;;;4992315;28;20047;-40
2023/06/03 00:33:59;;;;;;;3.75;1.08;;;13.50;78.70;;;;;;4990982;28;20084;-42
2023/06/03 00:36:27;;;;;;;4.47;1.20;;;13.40;78.80;;;;;;4972441;28;20051;-38
2023/06/03 00:38:54;;;;;;;2.80;1.15;;;13.40;78.80;;;;;;4974239;28;20177;-42
2023/06/03 00:41:21;;;;;;;2.22;1.17;;;13.30;78.80;;;;;;4979213;28;20442;-39
2023/06/03 00:43:47;;;;;;;3.38;1.23;;;13.30;79.00;;;;;;4989598;28;20054;-36
2023/06/03 00:46:14;;;;;;;2.08;1.10;;;13.30;78.80;;;;;;4991349;28;20058;-42
2023/06/03 00:48:41;;;;;;;2.15;1.15;;;13.20;78.70;;;;;;4985474;28;20150;-41
2023/06/03 00:51:08;;;;;;;2.88;1.20;;;13.20;78.80;;;;;;4972696;28;20126;-39
2023/06/03 00:53:36;;;;;;;2.25;1.23;;;13.20;79.00;;;;;;4974146;28;20058;-40
2023/06/03 00:56:03;;;;;;;3.05;1.33;;;13.10;78.90;;;;;;4988280;28;20047;-40
2023/06/03 00:58:29;;;;;;;7.38;1.52;;;13.10;79.00;;;;;;4986546;28;20051;-42
2023/06/03 01:00:56;;;;;;;2.72;1.33;;;13.10;79.20;;;;;;4977921;28;20499;-43
2023/06/03 01:03:23;;;;;;;3.00;1.48;;;13.00;79.20;;;;;;4972563;28;20074;-41
2023/06/03 01:05:54;;;;;;;6.57;1.75;;;13.00;79.10;;;;;;4989720;28;20046;-41
2023/06/03 01:08:23;;;;;;;3.63;1.50;;;13.00;79.20;;;;;;4984759;28;20047;-40
2023/06/03 01:10:55;;;;;;;3.67;1.58;;;12.90;79.20;;;;;;4980362;28;20581;-40
2023/06/03 01:13:25;;;;;;;4.28;1.60;;;12.90;79.20;;;;;;4988479;28;20066;-41
2023/06/03 01:15:53;;;;;;;5.90;1.60;;;12.90;79.20;;;;;;4979951;28;20077;-35
2023/06/03 01:18:20;;;;;;;4.25;1.50;;;12.80;79.10;;;;;;4973413;28;20046;-42
2023/06/03 01:20:48;;;;;;;3.28;1.50;;;12.70;79.20;;;;;;4976671;28;20105;-41
2023/06/03 01:23:23;;;;;;;2.83;1.20;;;12.70;79.00;;;;;;4982888;28;20057;-41
2023/06/03 01:25:52;;;;;;;2.35;1.27;;;12.70;78.70;;;;;;4986317;28;20079;-42
2023/06/03 01:28:20;;;;;;;2.60;1.30;;;12.70;78.90;;;;;;4987285;28;20141;-42
2023/06/03 01:30:46;;;;;;;2.78;1.02;;;12.60;78.90;;;;;;4980144;28;20100;-43
2023/06/03 01:33:13;;;;;;;2.03;1.08;;;12.50;78.90;;;;;;4978818;28;20558;-41
2023/06/03 01:35:40;;;;;;;5.22;1.25;;;12.50;79.00;;;;;;4990589;28;20475;-37
2023/06/03 01:38:07;;;;;;;5.25;1.52;;;12.50;79.10;;;;;;4979766;28;20050;-42
2023/06/03 01:40:35;;;;;;;4.82;1.42;;;12.40;79.20;;;;;;4989725;28;20108;-40
2023/06/03 01:43:02;;;;;;;4.20;1.40;;;12.40;79.30;;;;;;4991395;28;20479;-40
2023/06/03 01:45:29;;;;;;;3.85;1.40;;;12.30;79.50;;;;;;4989855;28;20057;-39
2023/06/03 01:47:56;;;;;;;4.80;1.48;;;12.30;79.40;;;;;;4990934;28;20053;-40
2023/06/03 01:50:22;;;;;;;2.85;1.50;;;12.30;79.40;;;;;;4987844;28;20454;-42
2023/06/03 01:52:49;;;;;;;4.97;2.05;;;12.30;79.50;;;;;;4989233;28;20112;-40
2023/06/03 01:55:16;;;;;;;4.63;1.80;;;12.20;79.50;;;;;;4977785;28;20085;-40
2023/06/03 01:57:46;;;;;;;3.42;1.95;;;12.10;79.50;;;;;;4991531;28;20481;-42
2023/06/03 02:00:13;;;;;;;4.10;1.40;;;12.20;79.60;;;;;;4978878;28;20089;-36
2023/06/03 02:02:40;;;;;;;4.03;1.60;;;12.10;79.80;;;;;;4986103;28;20046;-38
2023/06/03 02:05:07;;;;;;;2.88;1.52;;;12.10;79.80;;;;;;4990783;28;20495;-41
2023/06/03 02:07:34;;;;;;;2.03;1.30;;;12.00;79.80;;;;;;4990868;28;20050;-41
2023/06/03 02:10:01;;;;;;;3.42;1.60;;;12.00;79.80;;;;;;4981988;28;20054;-41
2023/06/03 02:12:28;;;;;;;5.55;1.30;;;12.00;79.90;;;;;;4989622;28;20108;-40
2023/06/03 02:14:56;;;;;;;3.58;1.17;;;12.00;80.00;;;;;;4990974;28;20434;-43
2023/06/03 02:17:24;;;;;;;1.98;1.10;;;11.90;80.10;;;;;;4989449;28;20089;-42
2023/06/03 02:19:51;;;;;;;1.40;0.98;;;11.90;80.30;;;;;;4990029;28;20137;-41
2023/06/03 02:22:18;;;;;;;2.80;1.15;;;11.80;80.30;;;;;;4991151;28;20050;-42
2023/06/03 02:24:46;;;;;;;3.08;1.50;;;11.80;80.40;;;;;;4990644;28;20465;-39
2023/06/03 02:27:14;;;;;;;2.63;1.00;;;11.80;80.30;;;;;;4993096;28;20051;-38
2023/06/03 02:29:41;;;;;;;3.10;1.00;;;11.70;80.40;;;;;;4994149;28;20097;-41
2023/06/03 02:32:10;;;;;;;2.65;1.00;;;11.70;80.50;;;;;;4992850;28;20129;-40
2023/06/03 02:34:36;;;;;;;1.50;1.00;;;11.70;80.60;;;;;;4993537;28;20058;-37
2023/06/03 02:37:05;;;;;;;3.20;1.30;;;11.70;80.60;;;;;;4993238;28;20201;-41
2023/06/03 02:39:31;;;;;;;4.22;1.20;;;11.60;80.70;;;;;;4995184;28;20054;-41
2023/06/03 02:41:58;;;;;;;2.35;1.15;;;11.60;80.80;;;;;;4992375;28;20046;-39
2023/06/03 02:44:25;;;;;;;3.80;1.27;;;11.60;81.10;;;;;;4994249;28;20324;-42
2023/06/03 02:46:52;;;;;;;3.60;1.40;;;11.50;81.20;;;;;;4993926;28;20125;-39
2023/06/03 02:49:20;;;;;;;2.17;1.15;;;11.50;81.10;;;;;;4993930;28;20113;-41
2023/06/03 02:51:47;;;;;;;4.15;1.20;;;11.40;81.10;;;;;;4987832;28;20081;-42
2023/06/03 02:54:13;;;;;;;2.83;1.02;;;11.40;81.20;;;;;;4975576;28;20135;-40
2023/06/03 02:56:40;;;;;;;3.25;1.20;;;11.40;81.20;;;;;;4986170;28;20059;-42
2023/06/03 02:59:07;;;;;;;4.40;1.23;;;11.40;81.30;;;;;;4978816;28;20086;-40
2023/06/03 03:01:35;;;;;;;1.55;0.98;;;11.30;81.30;;;;;;4987549;28;20057;-40
2023/06/03 03:04:02;;;;;;;4.68;1.30;;;11.30;81.60;;;;;;4981127;28;20054;-40
2023/06/03 03:06:30;;;;;;;2.53;1.00;;;11.30;81.70;;;;;;4982315;28;20169;-35
2023/06/03 03:08:57;;;;;;;7.60;1.52;;;11.30;81.80;;;;;;4978290;28;20153;-39
2023/06/03 03:11:24;;;;;;;2.33;1.05;;;11.20;82.00;;;;;;4986436;28;20145;-43
2023/06/03 03:13:51;;;;;;;3.33;1.20;;;11.10;82.10;;;;;;4991169;28;20109;-41
2023/06/03 03:16:18;;;;;;;3.60;1.23;;;11.10;82.10;;;;;;4991913;28;20054;-37
2023/06/03 03:18:44;;;;;;;5.20;1.20;;;11.10;82.30;;;;;;4989327;28;20063;-37
2023/06/03 03:21:11;;;;;;;5.38;1.42;;;11.10;82.30;;;;;;4976394;28;20093;-42
2023/06/03 03:23:39;;;;;;;4.35;1.52;;;11.10;82.40;;;;;;4992978;28;20125;-42
2023/06/03 03:26:08;;;;;;;3.90;1.35;;;11.00;82.50;;;;;;4992597;28;20510;-41
2023/06/03 03:28:35;;;;;;;3.55;1.73;;;11.00;82.50;;;;;;4981809;28;20303;-41
2023/06/03 03:31:04;;;;;;;2.50;1.38;;;11.00;82.60;;;;;;4983789;28;20050;-41
2023/06/03 03:33:31;;;;;;;2.38;1.38;;;10.90;82.70;;;;;;4990045;28;20133;-40
2023/06/03 03:36:08;;;;;;;2.47;1.20;;;10.90;82.80;;;;;;4974807;28;20082;-37
2023/06/03 03:38:36;;;;;;;2.90;1.40;;;10.90;82.80;;;;;;4974589;28;20133;-41
2023/06/03 03:41:05;;;;;;;3.05;1.38;;;10.80;83.70;;;;;;4990178;28;20055;-39
2023/06/03 03:43:32;;;;;;;2.88;1.63;;;10.80;83.10;;;;;;4998159;28;20051;-38
2023/06/03 03:45:59;;;;;;;4.32;1.52;;;10.80;83.10;;;;;;4981444;28;20523;-40
2023/06/03 03:48:28;;;;;;;4.13;1.30;;;10.80;83.30;;;;;;4993336;28;20471;-39
2023/06/03 03:50:54;;;;;;;6.78;1.70;;;10.80;83.40;;;;;;4992950;28;20062;-39
2023/06/03 03:53:22;;;;;;;5.68;1.50;;;10.80;83.40;;;;;;4990560;28;20081;-40
2023/06/03 03:55:50;;;;;;;6.13;1.70;;;10.80;83.50;;;;;;4989673;28;20104;-40
2023/06/03 03:58:28;;;;;;;3.25;1.55;;;10.80;83.60;;;;;;4979962;28;20086;-40
2023/06/03 04:00:57;;;;;;;2.63;1.42;;;10.70;83.50;;;;;;4986279;28;20105;-41
2023/06/03 04:03:24;;;;;;;2.70;1.50;;;10.70;83.70;;;;;;4985103;28;20050;-43
2023/06/03 04:05:51;;;;;;;2.03;1.40;;;10.70;83.70;;;;;;4980010;28;20101;-38
2023/06/03 04:08:46;;;;;;;5.07;1.88;;;10.70;83.90;;;;;;4974971;28;20463;-38
2023/06/03 04:11:20;;;;;;;3.03;1.55;;;10.70;83.80;;;;;;4978163;28;20456;-42
2023/06/03 04:13:49;;;;;;;3.92;1.23;;;10.70;83.90;;;;;;4989063;28;20054;-40
2023/06/03 04:16:37;;;;;;;5.78;1.80;;;10.70;84.10;;;;;;4991558;28;20124;-40
2023/06/03 04:19:04;;;;;;;6.13;1.55;;;10.70;84.20;;;;;;4983055;28;20082;-40
2023/06/03 04:21:31;;;;;;;3.83;1.88;;;10.60;84.30;;;;;;4973468;28;20090;-35
2023/06/03 04:23:58;;;;;;;2.45;1.30;;;10.60;84.50;;;;;;4991988;28;20073;-39
2023/06/03 04:26:24;;;;;;;3.20;1.50;;;10.70;84.70;;;;;;4987697;28;20459;-39
2023/06/03 04:28:52;;;;;;;2.72;1.33;;;10.60;84.80;;;;;;4991530;28;20062;-40
2023/06/03 04:31:19;;;;;;;4.85;1.42;;;10.70;85.00;;;;;;4990834;28;20561;-40
2023/06/03 04:33:46;;;;;;;5.90;1.40;;;10.60;85.20;;;;;;4988290;28;20113;-36
2023/06/03 04:36:13;;;;;;;3.97;1.30;;;10.70;85.20;;;;;;4987128;28;20058;-42
2023/06/03 04:38:41;;;;;;;5.60;1.52;;;10.60;85.30;;;;;;4991497;28;20478;-37
2023/06/03 04:41:10;;;;;;;5.78;1.35;;;10.60;85.50;;;;;;4979465;28;20515;-38
2023/06/03 04:43:38;;;;;;;5.35;2.15;;;10.60;85.90;;;;;;4972442;28;20054;-41
2023/06/03 04:46:09;;;;;;;3.42;1.48;;;10.60;86.10;;;;;;4991139;28;20050;-39
2023/06/03 04:48:36;;;;;;;3.90;1.50;;;10.70;86.30;;;;;;4992187;28;20056;-40
2023/06/03 04:51:07;;;;;;;6.03;1.48;;;10.70;86.20;;;;;;4978906;28;20134;-39
2023/06/03 04:53:34;;;;;;;3.65;1.23;;;10.70;86.20;;;;;;4984852;28;20050;-36
2023/06/03 04:56:02;;;;;;;3.08;1.50;;;10.70;86.50;;;;;;4992367;28;20411;-40
2023/06/03 04:58:29;;;;;;;3.38;1.40;;;10.70;87.00;;;;;;4989756;28;20449;-42
2023/06/03 05:00:56;;;;;;;3.22;1.48;;;10.70;86.90;;;;;;4983083;28;20078;-39
2023/06/03 05:03:26;;;;;;;3.13;1.42;;;10.70;87.20;;;;;;4980910;28;20130;-40
2023/06/03 05:05:52;;;;;;;5.13;1.40;;;10.70;87.00;;;;;;4974911;28;20058;-41
2023/06/03 05:08:19;;;;;;;3.42;1.50;;;10.90;87.30;;;;;;4986773;28;20085;-40
2023/06/03 05:10:46;;;;;;;4.55;1.60;;;10.80;87.40;;;;;;4989075;28;20042;-39
2023/06/03 05:13:13;;;;;;;5.07;1.50;;;10.90;87.60;;;;;;5000811;28;20089;-42
2023/06/03 05:15:40;;;;;;;2.55;1.52;;;10.90;87.70;;;;;;4992030;28;20105;-37
2023/06/03 05:18:07;;;;;;;5.00;1.77;;;11.00;87.80;;;;;;4990394;28;20406;-36
2023/06/03 05:20:35;;;;;;;4.85;1.80;;;11.00;88.00;;;;;;4989244;28;20065;-38
2023/06/03 05:23:05;;;;;;;3.33;1.70;;;11.10;88.10;;;;;;4986501;28;20104;-40
2023/06/03 05:25:31;;;;;;;5.00;1.60;;;11.20;88.10;;;;;;4987458;28;20121;-40
2023/06/03 05:27:58;;;;;;;4.68;1.65;;;11.30;88.00;;;;;;4987773;28;20146;-38
2023/06/03 05:30:25;;;;;;;3.53;1.60;;;11.40;87.80;;;;;;4986470;28;20097;-39
2023/06/03 05:32:52;;;;;;;8.85;1.50;;;11.60;87.60;;;;;;4978961;28;20503;-40
2023/06/03 05:35:19;;;;;;;5.63;1.60;;;11.70;87.20;;;;;;4981293;28;20088;-36
2023/06/03 05:37:47;;;;;;;6.93;1.60;;;11.80;87.00;;;;;;4979825;28;20054;-39
2023/06/03 05:40:14;;;;;;;6.05;1.73;;;11.90;86.60;;;;;;4975360;28;20515;-40
2023/06/03 05:42:40;;;;;;;6.53;1.88;;;12.00;86.20;;;;;;4986472;28;20050;-40
2023/06/03 05:45:08;;;;;;;3.38;1.52;;;12.10;85.90;;;;;;4988816;28;20054;-40
2023/06/03 05:47:35;;;;;;;4.32;1.95;;;12.20;86.00;;;;;;4979319;28;20190;-40
2023/06/03 05:50:02;;;;;;;3.47;1.65;;;12.30;86.10;;;;;;4971515;28;20054;-41
2023/06/03 05:52:29;;;;;;;4.35;1.52;;;12.40;86.00;;;;;;4988228;28;20496;-39
2023/06/03 05:54:57;;;;;;;7.63;1.42;;;12.60;85.80;;;;;;4991397;28;20108;-40
2023/06/03 05:57:24;;;;;;;4.93;1.58;;;12.70;85.40;;;;;;4988377;28;20087;-40
2023/06/03 05:59:51;;;;;;;4.97;1.90;;;12.80;85.10;;;;;;4973932;28;20479;-41
2023/06/03 06:02:18;;;;;;;1.95;1.40;;;13.00;84.70;;;;;;4993901;28;20061;-40
2023/06/03 06:04:45;;;;;;;5.72;1.55;;;13.10;84.70;;;;;;4978234;28;20050;-42
2023/06/03 06:07:12;;;;;;;4.82;1.30;;;13.20;84.50;;;;;;4988090;28;20079;-44
2023/06/03 06:09:39;;;;;;;4.03;1.38;;;13.40;84.40;;;;;;4988885;28;20082;-42
2023/06/03 06:12:07;;;;;;;3.00;1.30;;;13.60;84.00;;;;;;4987423;28;20046;-42
2023/06/03 06:14:34;;;;;;;4.15;1.20;;;13.80;83.50;;;;;;4986092;28;20150;-42
2023/06/03 06:17:01;;;;;;;4.05;1.40;;;13.90;83.10;;;;;;4989126;28;20042;-42
2023/06/03 06:19:27;;;;;;;2.08;1.33;;;14.10;83.00;;;;;;4995489;28;20132;-40
2023/06/03 06:21:54;;;;;;;5.00;1.30;;;14.30;82.60;;;;;;4986853;28;20112;-43
2023/06/03 06:24:21;;;;;;;3.03;1.30;;;14.40;82.10;;;;;;4986444;28;20137;-38
2023/06/03 06:26:49;;;;;;;3.67;1.40;;;14.50;81.70;;;;;;4983998;28;20059;-44
2023/06/03 06:29:17;;;;;;;6.47;1.80;;;14.70;81.30;;;;;;4986163;28;20516;-37
2023/06/03 06:31:44;;;;;;;7.53;3.42;;;14.70;81.10;;;;;;4985547;28;20074;-40
2023/06/03 06:34:11;;;;;;;4.85;1.65;;;14.80;81.20;;;;;;4979499;28;20050;-40
2023/06/03 06:36:49;;;;;;;3.33;1.13;;;14.90;80.90;;;;;;4985333;28;20046;-43
2023/06/03 06:39:41;;;;;;;4.28;1.30;;;15.00;79.60;;;;;;4988414;28;20046;-40
2023/06/03 06:42:10;;;;;;;4.97;1.20;;;15.10;79.30;;;;;;4992251;28;20447;-43
2023/06/03 06:44:43;;;;;;;4.93;1.55;;;15.20;78.90;;;;;;4992704;28;20061;-42
2023/06/03 06:47:11;;;;;;;3.13;1.08;;;15.30;78.50;;;;;;4990735;28;20570;-41
2023/06/03 06:49:37;;;;;;;3.42;1.40;;;15.40;77.90;;;;;;4975531;28;20105;-41
2023/06/03 06:52:05;;;;;;;4.88;1.30;;;15.50;77.30;;;;;;4995107;28;20462;-42
2023/06/03 06:54:31;;;;;;;5.50;1.40;;;15.50;76.80;;;;;;4978858;28;20054;-40
2023/06/03 06:56:58;;;;;;;5.88;1.70;;;15.60;77.50;;;;;;4976372;28;20114;-42
2023/06/03 06:59:25;;;;;;;2.53;1.10;;;15.80;77.30;;;;;;4981105;28;20097;-42
2023/06/03 07:01:53;;;;;;;1.92;1.10;;;16.00;76.20;;;;;;4991384;28;20498;-42
2023/06/03 07:04:20;;;;;;;7.50;1.10;;;16.10;75.20;;;;;;4992221;28;20173;-40
2023/06/03 07:06:47;;;;;;;3.55;1.20;;;16.30;75.60;;;;;;4978830;28;20332;-43
2023/06/03 07:09:14;;;;;;;3.00;1.40;;;16.40;76.00;;;;;;4985249;28;20105;-43
2023/06/03 07:11:43;;;;;;;2.78;1.02;;;16.70;75.10;;;;;;4991951;28;20116;-44
2023/06/03 07:14:09;;;;;;;4.63;1.20;;;16.90;75.30;;;;;;4988427;28;20097;-42
2023/06/03 07:16:36;;;;;;;2.25;1.30;;;17.10;74.90;;;;;;4992918;28;20110;-44
2023/06/03 07:19:04;;;;;;;4.35;1.30;;;17.20;74.10;;;;;;4990644;28;20519;-41
2023/06/03 07:21:31;;;;;;;4.13;1.20;;;17.30;74.00;;;;;;4993801;28;20057;-43
2023/06/03 07:23:59;;;;;;;4.05;1.20;;;17.40;73.70;;;;;;4979146;28;20480;-43
2023/06/03 07:26:27;;;;;;;1.90;1.10;;;17.50;73.20;;;;;;4973503;28;20141;-43
2023/06/03 07:28:56;;;;;;;5.90;1.27;;;17.70;72.70;;;;;;4987178;28;20114;-42
2023/06/03 07:31:23;;;;;;;7.07;1.25;;;17.90;72.70;;;;;;4987674;28;20138;-43
2023/06/03 07:33:51;;;;;;;2.70;1.20;;;18.20;72.70;;;;;;4993385;28;20086;-43
2023/06/03 07:36:20;;;;;;;3.60;0.95;;;18.40;72.70;;;;;;4993437;28;20053;-43
2023/06/03 07:39:02;;;;;;;2.70;1.20;;;18.60;71.10;;;;;;4994274;28;20078;-43
2023/06/03 07:41:41;;;;;;;3.03;1.00;;;18.70;70.80;;;;;;4975106;28;20057;-43
2023/06/03 07:44:08;;;;;;;5.03;1.23;;;18.70;71.00;;;;;;4990848;28;20046;-43
2023/06/03 07:46:45;;;;;;;2.85;1.25;;;18.80;70.20;;;;;;4993477;28;20133;-43
2023/06/03 07:49:12;;;;;;;3.47;1.00;;;18.90;69.00;;;;;;4984534;28;20089;-43
2023/06/03 07:51:45;;;;;;;3.92;1.35;;;19.10;68.90;;;;;;4980256;28;20098;-41
2023/06/03 07:54:12;;;;;;;2.05;1.05;;;19.20;67.70;;;;;;4981738;28;20060;-42
2023/06/03 07:56:38;;;;;;;3.67;1.33;;;19.40;67.90;;;;;;4991614;28;20081;-44
2023/06/03 07:59:06;;;;;;;4.85;0.90;;;19.60;67.90;;;;;;4993797;28;20046;-43
2023/06/03 08:01:35;;;;;;;1.90;0.90;;;19.80;67.60;;;;;;4974593;28;20058;-43
2023/06/03 08:04:03;;;;;;;4.22;1.00;;;20.00;67.20;;;;;;4973970;28;20139;-44
2023/06/03 08:06:32;;;;;;;2.15;1.10;;;20.00;66.90;;;;;;4982696;28;20054;-40
2023/06/03 08:09:00;;;;;;;4.55;0.90;;;20.00;67.70;;;;;;4992115;28;20129;-44
2023/06/03 08:11:27;;;;;;;3.03;1.10;;;20.10;67.50;;;;;;4985172;28;20443;-42
2023/06/03 08:13:55;;;;;;;2.08;0.98;;;20.10;67.00;;;;;;4986980;28;20046;-42
2023/06/03 08:16:22;;;;;;;3.03;1.23;;;20.20;66.20;;;;;;4987194;28;20054;-43
2023/06/03 08:18:50;;;;;;;2.55;1.00;;;20.10;65.20;;;;;;4988079;28;20829;-43
2023/06/03 08:21:18;;;;;;;3.10;1.08;;;20.20;65.30;;;;;;4982028;28;20121;-40
2023/06/03 08:23:45;;;;;;;5.97;0.98;;;20.20;65.90;;;;;;4978659;28;20495;-41
2023/06/03 08:26:13;;;;;;;4.60;0.98;;;20.20;65.60;;;;;;4981377;28;20046;-45
2023/06/03 08:28:40;;;;;;;3.10;1.17;;;20.30;64.50;;;;;;4985129;28;20129;-44
2023/06/03 08:31:07;;;;;;;1.50;0.73;;;20.50;63.70;;;;;;4986103;28;20046;-42
2023/06/03 08:33:34;;;;;;;4.47;1.05;;;20.70;63.90;;;;;;4988189;28;20116;-43
2023/06/03 08:36:01;;;;;;;2.00;1.00;;;21.00;63.40;;;;;;4990002;28;20034;-42
2023/06/03 08:38:28;;;;;;;2.83;0.82;;;21.20;61.80;;;;;;4987407;28;20446;-43
2023/06/03 08:40:54;;;;;;;3.20;1.10;;;21.30;61.30;;;;;;4986787;28;20054;-41
2023/06/03 08:43:23;;;;;;;2.35;0.70;;;21.50;59.60;;;;;;4986072;28;20058;-42
2023/06/03 08:45:54;;;;;;;4.82;0.80;;;21.70;58.40;;;;;;4980430;28;20597;-43
2023/06/03 08:48:25;;;;;;;1.83;0.83;;;21.80;58.00;;;;;;4982138;28;20049;-43
2023/06/03 08:50:51;;;;;;;1.38;0.68;;;22.00;58.20;;;;;;4987531;28;20462;-42
2023/06/03 08:53:18;;;;;;;1.38;0.77;;;22.10;57.40;;;;;;4975349;28;20062;-39
2023/06/03 08:55:45;;;;;;;6.22;0.90;;;22.20;57.80;;;;;;4981509;28;20058;-43
2023/06/03 08:58:13;;;;;;;5.32;0.90;;;22.20;56.50;;;;;;4979075;28;20161;-40
2023/06/03 09:00:42;;;;;;;4.47;0.85;;;22.20;56.60;;;;;;4981953;28;20094;-41
2023/06/03 09:03:11;;;;;;;3.42;0.90;;;22.10;55.50;;;;;;4988266;28;20109;-43
2023/06/03 09:05:38;;;;;;;3.97;0.93;;;21.90;55.50;;;;;;4980599;28;20506;-43
2023/06/03 09:08:05;;;;;;;6.30;0.65;;;21.80;57.40;;;;;;4984526;28;20137;-43
2023/06/03 09:10:32;;;;;;;3.47;0.70;;;21.70;56.00;;;;;;4986341;28;20133;-42
2023/06/03 09:12:59;;;;;;;4.68;1.00;;;21.60;56.90;;;;;;4987946;28;20097;-44
2023/06/03 09:15:26;;;;;;;5.88;1.30;;;21.40;55.50;;;;;;4982705;28;20051;-44
2023/06/03 09:17:54;;;;;;;2.65;0.70;;;21.30;55.80;;;;;;4981478;28;20085;-44
2023/06/03 09:20:21;;;;;;;2.08;0.77;;;21.30;57.30;;;;;;4992000;28;20093;-43
2023/06/03 09:22:47;;;;;;;3.35;0.90;;;21.40;56.70;;;;;;4976428;28;20066;-44
2023/06/03 09:25:14;;;;;;;3.88;0.90;;;21.50;56.50;;;;;;4992242;28;20479;-45
2023/06/03 09:27:41;;;;;;;5.93;1.10;;;21.50;56.40;;;;;;4991754;28;20572;-46
2023/06/03 09:30:09;;;;;;;2.45;0.85;;;21.40;54.90;;;;;;4982756;28;20528;-42
2023/06/03 09:32:37;;;;;;;1.48;0.77;;;21.40;54.50;;;;;;4982269;28;20138;-43
2023/06/03 09:35:06;;;;;;;2.92;0.60;;;21.60;54.30;;;;;;4985620;28;20085;-42
2023/06/03 09:37:32;;;;;;;3.00;0.77;;;21.80;55.40;;;;;;4986845;28;20050;-42
2023/06/03 09:39:59;;;;;;;4.45;1.00;;;22.00;54.70;;;;;;4983017;28;20069;-43
2023/06/03 09:42:40;;;;;;;4.18;1.00;;;22.10;54.20;;;;;;4985404;28;20104;-43
2023/06/03 09:45:08;;;;;;;3.25;0.98;;;22.20;54.00;;;;;;4986491;28;20057;-36
2023/06/03 09:47:38;;;;;;;5.57;0.85;;;22.50;54.60;;;;;;4992057;28;20047;-41
2023/06/03 09:53:23;;;;;;;2.95;0.90;;;22.60;52.30;;;;;;4991274;28;20061;-43
2023/06/03 09:55:50;;;;;;;3.33;0.80;;;22.60;52.70;;;;;;4985904;28;20450;-44
2023/06/03 09:58:16;;;;;;;5.53;0.98;;;22.70;52.80;;;;;;4983555;28;20139;-44
2023/06/03 10:00:47;;;;;;;5.65;0.90;;;22.70;52.20;;;;;;4989257;28;20130;-44
2023/06/03 10:03:14;;;;;;;2.00;0.90;;;22.70;52.10;;;;;;4979531;28;20079;-40
2023/06/03 10:05:42;;;;;;;2.60;0.90;;;22.70;52.00;;;;;;4987788;28;20347;-45
2023/06/03 10:08:09;;;;;;;2.65;1.02;;;22.80;51.20;;;;;;4991344;28;20399;-43
2023/06/03 10:10:36;;;;;;;2.75;0.82;;;22.80;51.70;;;;;;4988367;28;20152;-45
2023/06/03 10:13:18;;;;;;;4.20;0.77;;;23.00;52.30;;;;;;4985765;28;20054;-43
2023/06/03 10:15:44;;;;;;;1.55;0.60;;;23.30;51.80;;;;;;4989807;28;20483;-44
2023/06/03 10:18:11;;;;;;;1.42;0.88;;;23.40;51.80;;;;;;4985739;28;20046;-39
2023/06/03 10:20:39;;;;;;;2.42;1.17;;;23.40;51.60;;;;;;4990911;28;20097;-41
2023/06/03 10:23:08;;;;;;;3.08;0.93;;;23.50;51.50;;;;;;4987733;28;20055;-44
2023/06/03 10:25:41;;;;;;;8.10;1.20;;;23.60;52.00;;;;;;4977768;28;20170;-43
2023/06/03 10:28:08;;;;;;;3.42;0.95;;;23.80;53.30;;;;;;4992878;28;20133;-41
2023/06/03 10:30:34;;;;;;;2.00;0.70;;;23.90;52.10;;;;;;4979180;28;20059;-42
2023/06/03 10:33:03;;;;;;;2.58;0.80;;;24.00;51.20;;;;;;4979804;28;20050;-44
2023/06/03 10:35:30;;;;;;;2.58;0.90;;;23.90;50.90;;;;;;4990745;28;20046;-44
2023/06/03 10:37:58;;;;;;;1.85;0.90;;;23.90;50.40;;;;;;4980469;28;20100;-42
2023/06/03 10:40:26;;;;;;;5.43;1.20;;;23.90;51.40;;;;;;4990099;28;20116;-44
2023/06/03 10:42:54;;;;;;;2.67;0.90;;;24.00;50.40;;;;;;4982365;28;20078;-44
2023/06/03 10:45:20;;;;;;;4.47;0.80;;;24.10;49.80;;;;;;4984807;28;20043;-43
2023/06/03 10:47:47;;;;;;;3.75;1.30;;;24.20;49.40;;;;;;4980693;28;20136;-44
2023/06/03 10:50:20;;;;;;;3.42;0.90;;;24.20;49.00;;;;;;4985744;28;20144;-40
2023/06/03 10:52:58;;;;;;;1.23;0.73;;;24.30;48.40;;;;;;4979784;28;20134;-42
2023/06/03 10:55:31;;;;;;;1.52;0.60;;;24.30;48.30;;;;;;4992697;28;20120;-44
2023/06/03 10:58:01;;;;;;;19.48;1.30;;;24.40;48.10;;;;;;4979884;28;20057;-42
2023/06/03 11:00:53;;;;;;;3.92;1.20;;;24.30;48.10;;;;;;4980992;28;20050;-43
2023/06/03 11:03:21;;;;;;;2.75;0.70;;;24.40;48.10;;;;;;4984183;28;20097;-43
2023/06/03 11:05:47;;;;;;;5.20;1.00;;;24.40;49.20;;;;;;4978821;28;20074;-44
2023/06/03 11:08:14;;;;;;;5.35;1.10;;;24.60;49.40;;;;;;4983133;28;20054;-44
2023/06/03 11:10:43;;;;;;;2.08;1.00;;;24.80;49.40;;;;;;4991457;28;20534;-44
2023/06/03 11:13:11;;;;;;;5.03;1.20;;;24.90;47.90;;;;;;4981803;28;20059;-44
2023/06/03 11:16:00;;;;;;;8.27;1.23;;;24.90;49.00;;;;;;4988140;28;20376;-44
2023/06/03 11:18:27;;;;;;;1.30;0.70;;;25.00;48.70;;;;;;4988414;28;20098;-44
2023/06/03 11:20:54;;;;;;;6.55;0.95;;;25.00;47.50;;;;;;4983722;28;20443;-44
2023/06/03 11:23:39;;;;;;;4.53;1.15;;;25.00;47.80;;;;;;4979211;28;20055;-43
2023/06/03 11:26:32;;;;;;;3.83;1.00;;;25.00;48.90;;;;;;4984469;28;20082;-43
2023/06/03 11:28:58;;;;;;;3.47;0.88;;;25.10;47.80;;;;;;4980308;28;20404;-44
2023/06/03 11:31:25;;;;;;;1.58;0.80;;;25.10;48.20;;;;;;4988528;28;20062;-44
2023/06/03 11:34:26;;;;;;;3.08;0.70;;;25.20;47.70;;;;;;4978226;28;20146;-44
2023/06/03 11:36:53;;;;;;;4.20;0.90;;;25.10;49.00;;;;;;4982830;28;20050;-45
2023/06/03 11:39:20;;;;;;;5.47;0.82;;;25.20;49.70;;;;;;4986333;28;20541;-41
2023/06/03 11:42:09;;;;;;;1.83;0.70;;;25.20;47.90;;;;;;4976256;28;20054;-44
2023/06/03 11:44:37;;;;;;;3.47;1.10;;;25.30;47.30;;;;;;4988631;28;20053;-44
2023/06/03 11:47:04;;;;;;;3.72;1.13;;;25.40;46.90;;;;;;4977367;28;20109;-43
2023/06/03 11:49:35;;;;;;;2.38;0.85;;;25.50;46.40;;;;;;4988353;28;20458;-43
2023/06/03 11:52:02;;;;;;;2.88;1.00;;;25.60;46.70;;;;;;4993325;28;20050;-45
2023/06/03 11:54:29;;;;;;;4.60;1.10;;;25.60;46.60;;;;;;4989934;28;20050;-43
2023/06/03 11:56:57;;;;;;;2.40;1.10;;;25.60;47.10;;;;;;4991604;28;20046;-44
2023/06/03 11:59:31;;;;;;;5.55;1.02;;;25.60;47.00;;;;;;4993095;28;20569;-44
2023/06/03 12:01:58;;;;;;;2.03;1.20;;;25.70;46.40;;;;;;4991758;28;20068;-43
2023/06/03 12:04:25;;;;;;;4.68;1.10;;;25.60;45.90;;;;;;4990511;28;20086;-45
2023/06/03 12:06:52;;;;;;;3.38;0.98;;;25.50;46.90;;;;;;4978269;28;20055;-44
2023/06/03 12:09:19;;;;;;;1.67;0.90;;;25.50;46.60;;;;;;4988303;28;20438;-44
2023/06/03 12:11:46;;;;;;;3.78;0.80;;;25.50;46.40;;;;;;4986357;28;20125;-43
2023/06/03 12:14:24;;;;;;;2.53;0.80;;;25.50;46.40;;;;;;4989060;28;20108;-44
2023/06/03 12:16:52;;;;;;;4.47;0.80;;;25.70;46.50;;;;;;4989733;28;20431;-43
2023/06/03 12:19:19;;;;;;;2.40;0.93;;;25.70;47.70;;;;;;4977134;28;20053;-43
2023/06/03 12:21:54;;;;;;;3.25;0.80;;;25.80;47.00;;;;;;4985034;28;20133;-45
2023/06/03 12:24:26;;;;;;;4.03;0.90;;;25.90;46.70;;;;;;4989032;28;20528;-43
2023/06/03 12:26:54;;;;;;;2.05;0.82;;;26.10;46.10;;;;;;4988735;28;20512;-39
2023/06/03 12:29:21;;;;;;;2.67;0.90;;;26.10;45.90;;;;;;4979007;28;20054;-44
2023/06/03 12:31:59;;;;;;;2.50;0.90;;;26.20;46.80;;;;;;4975733;28;20065;-44
2023/06/03 12:34:31;;;;;;;2.15;0.80;;;26.30;45.10;;;;;;4981232;28;20050;-39
2023/06/03 12:36:57;;;;;;;3.15;0.90;;;26.30;46.40;;;;;;4980892;28;20406;-44
2023/06/03 12:39:39;;;;;;;2.17;0.90;;;26.40;46.80;;;;;;4988125;28;20054;-44
2023/06/03 12:42:08;;;;;;;1.40;0.75;;;26.50;45.70;;;;;;4991198;28;20491;-41
2023/06/03 12:44:42;;;;;;;2.30;0.88;;;26.60;45.90;;;;;;4992614;28;20359;-45
2023/06/03 12:47:11;;;;;;;2.30;0.90;;;26.60;46.20;;;;;;4981363;28;20105;-40
2023/06/03 12:49:38;;;;;;;1.95;1.00;;;26.70;46.90;;;;;;4992371;28;20489;-43
2023/06/03 12:52:15;;;;;;;4.45;0.80;;;26.90;46.20;;;;;;4992683;28;20054;-46
2023/06/03 12:54:44;;;;;;;3.42;1.00;;;26.90;47.50;;;;;;4991436;28;20054;-43
2023/06/03 12:57:11;;;;;;;3.67;1.00;;;27.00;46.30;;;;;;4992462;28;20054;-44
2023/06/03 13:00:00;;;;;;;2.85;1.00;;;27.10;45.90;;;;;;4990682;28;20058;-44